Time;durP1;ratioP1;P1;durP2;ratioP2;P2;SDS_P1;SDS_P2;PMS_P1;PMS_P2;Temp;Humidity;BMP_temperature;BMP_pressure;BME280_temperature;BME280_humidity;BME280_pressure;Samples;Min_cycle;Max_cycle;Signal;HPM_P1;HPM_P2
2023/08/27 00:01:51;;;;;;;19.70;17.92;;;;;;;22.72;62.66;98332.06;5069383;28;20589;-92
2023/08/27 00:04:17;;;;;;;19.63;17.80;;;;;;;22.74;62.88;98334.66;5054457;28;20120;-90
2023/08/27 00:06:43;;;;;;;18.25;16.77;;;;;;;22.70;62.87;98322.34;5088023;28;20044;-91
2023/08/27 00:09:09;;;;;;;17.63;16.23;;;;;;;22.51;63.07;98298.63;5054125;28;20037;-91
2023/08/27 00:11:37;;;;;;;18.08;16.48;;;;;;;22.62;62.81;98322.09;5070638;28;20586;-91
2023/08/27 00:14:02;;;;;;;17.83;16.42;;;;;;;22.54;63.32;98296.53;5071249;28;20169;-93
2023/08/27 00:16:28;;;;;;;19.38;17.77;;;;;;;22.62;63.08;98328.41;5052913;28;20124;-90
2023/08/27 00:18:54;;;;;;;18.77;17.33;;;;;;;22.59;63.57;98315.09;5070520;28;20137;-92
2023/08/27 00:21:20;;;;;;;18.92;17.52;;;;;;;22.56;64.27;98323.50;5070100;28;20045;-93
2023/08/27 00:23:46;;;;;;;18.25;16.77;;;;;;;22.55;64.85;98316.34;5053621;28;20037;-93
2023/08/27 00:26:12;;;;;;;18.00;16.65;;;;;;;22.46;65.71;98311.69;5087515;28;20072;-91
2023/08/27 00:28:39;;;;;;;19.92;18.30;;;;;;;22.35;66.29;98308.03;5052422;28;20502;-91
2023/08/27 00:31:05;;;;;;;18.30;16.67;;;;;;;22.33;66.56;98295.59;5050135;28;20048;-92
2023/08/27 00:33:31;;;;;;;18.00;16.35;;;;;;;22.30;67.21;98293.16;5086808;28;20037;-92
2023/08/27 00:35:57;;;;;;;18.27;16.88;;;;;;;22.22;68.42;98303.72;5052194;28;20076;-92
2023/08/27 00:38:23;;;;;;;19.20;17.65;;;;;;;22.23;68.17;98319.00;5051926;28;20033;-91
2023/08/27 00:40:48;;;;;;;18.80;17.17;;;;;;;22.10;68.21;98311.03;5086729;28;20499;-93
2023/08/27 00:43:14;;;;;;;17.55;16.15;;;;;;;21.97;68.76;98316.56;5070396;28;20052;-92
2023/08/27 00:45:42;;;;;;;18.50;17.00;;;;;;;21.96;68.85;98314.84;5051613;28;20037;-91
2023/08/27 00:48:08;;;;;;;18.80;16.90;;;;;;;21.77;69.32;98303.78;5069371;28;20053;-91
2023/08/27 00:50:34;;;;;;;18.73;17.23;;;;;;;21.76;69.69;98302.91;5053230;28;20041;-92
2023/08/27 00:53:00;;;;;;;19.38;17.70;;;;;;;21.74;70.08;98302.19;5053438;28;20044;-91
2023/08/27 00:55:26;;;;;;;18.88;17.38;;;;;;;21.78;68.79;98305.50;5086248;28;20466;-92
2023/08/27 00:57:53;;;;;;;18.58;17.17;;;;;;;21.68;68.76;98289.13;5069841;28;20064;-94
2023/08/27 01:00:20;;;;;;;18.80;17.13;;;;;;;21.66;68.92;98291.09;5051976;28;20041;-92
2023/08/27 01:02:48;;;;;;;19.40;17.75;;;;;;;21.54;69.94;98288.41;5054337;28;20494;-91
2023/08/27 01:05:14;;;;;;;18.83;17.40;;;;;;;21.47;69.91;98295.28;5053135;28;20037;-91
2023/08/27 01:07:46;;;;;;;18.15;16.70;;;;;;;21.47;70.01;98299.81;5085466;28;20037;-91
2023/08/27 01:10:19;;;;;;;18.90;17.40;;;;;;;21.48;70.86;98304.25;5069751;28;20037;-91
2023/08/27 01:12:59;;;;;;;19.73;17.90;;;;;;;21.45;70.19;98293.69;5052720;28;20064;-91
2023/08/27 01:15:27;;;;;;;18.00;16.60;;;;;;;21.48;70.06;98280.78;5051349;28;20048;-92
2023/08/27 01:17:55;;;;;;;19.25;17.83;;;;;;;21.55;70.20;98273.03;5069182;28;20135;-92
2023/08/27 01:20:22;;;;;;;18.02;16.50;;;;;;;21.53;69.72;98259.66;5069523;28;20502;-91
2023/08/27 01:22:49;;;;;;;19.80;18.10;;;;;;;21.41;70.75;98271.44;5052222;28;20040;-93
2023/08/27 01:25:19;;;;;;;18.30;16.88;;;;;;;21.37;71.55;98278.03;5052442;28;20032;-92
2023/08/27 01:27:51;;;;;;;19.77;18.17;;;;;;;21.34;71.89;98281.00;5068790;28;20036;-91
2023/08/27 01:30:23;;;;;;;19.38;17.88;;;;;;;21.30;72.01;98285.78;5050164;28;20114;-91
2023/08/27 01:32:56;;;;;;;18.58;17.17;;;;;;;21.02;73.63;98276.25;5048992;28;20060;-92
2023/08/27 01:35:22;;;;;;;19.67;18.23;;;;;;;21.08;73.05;98273.06;5052588;28;20039;-91
2023/08/27 01:37:49;;;;;;;18.95;17.25;;;;;;;21.05;73.49;98276.00;5069017;28;20485;-92
2023/08/27 01:40:18;;;;;;;20.05;17.98;;;;;;;20.96;74.84;98268.63;5068984;28;20056;-90
2023/08/27 01:42:44;;;;;;;19.65;18.08;;;;;;;20.79;74.99;98256.41;5052502;28;20441;-93
2023/08/27 01:45:12;;;;;;;18.58;17.05;;;;;;;20.91;74.71;98268.13;5067301;28;20041;-92
2023/08/27 01:47:38;;;;;;;19.45;17.98;;;;;;;20.88;74.42;98257.53;5052379;28;20044;-91
2023/08/27 01:50:05;;;;;;;19.55;17.58;;;;;;;20.80;74.24;98254.59;5051025;28;20407;-91
2023/08/27 01:52:31;;;;;;;19.63;18.02;;;;;;;20.77;75.27;98265.63;5069064;28;20040;-93
2023/08/27 01:54:58;;;;;;;19.73;17.92;;;;;;;20.63;76.56;98259.44;5067987;28;20045;-92
2023/08/27 01:57:24;;;;;;;19.70;18.00;;;;;;;20.62;76.33;98252.28;5067515;28;20041;-90
2023/08/27 01:59:50;;;;;;;19.83;17.98;;;;;;;20.62;76.43;98246.03;5068184;28;20557;-91
2023/08/27 02:02:16;;;;;;;19.95;18.33;;;;;;;20.57;76.83;98240.97;5051158;28;20094;-91
2023/08/27 02:04:41;;;;;;;18.42;16.83;;;;;;;20.58;76.56;98244.53;5052653;28;20032;-92
2023/08/27 02:07:09;;;;;;;19.33;17.83;;;;;;;20.48;76.63;98231.72;5052061;28;20041;-92
2023/08/27 02:09:34;;;;;;;19.80;18.05;;;;;;;20.54;76.81;98249.31;5068559;28;20037;-92
2023/08/27 02:12:04;;;;;;;19.02;17.38;;;;;;;20.45;76.69;98233.78;5068406;28;20069;-90
2023/08/27 02:14:29;;;;;;;19.30;17.45;;;;;;;20.44;76.55;98246.44;5051359;28;20041;-92
2023/08/27 02:16:55;;;;;;;20.88;18.98;;;;;;;20.34;77.22;98236.44;5084140;28;20119;-92
2023/08/27 02:19:21;;;;;;;19.88;18.27;;;;;;;20.38;76.87;98238.78;5050676;28;21426;-92
2023/08/27 02:21:47;;;;;;;18.27;16.77;;;;;;;20.46;76.52;98251.72;5068065;28;20124;-92
2023/08/27 02:24:13;;;;;;;18.67;16.90;;;;;;;20.42;75.70;98240.28;5084546;28;20127;-91
2023/08/27 02:26:39;;;;;;;19.75;18.08;;;;;;;20.45;76.30;98264.38;5068215;28;20044;-91
2023/08/27 02:29:06;;;;;;;18.02;16.42;;;;;;;20.29;75.99;98240.34;5067589;28;20044;-91
2023/08/27 02:31:32;;;;;;;18.40;16.60;;;;;;;20.42;75.91;98266.44;5065963;28;20063;-91
2023/08/27 02:34:00;;;;;;;19.35;17.63;;;;;;;20.44;76.44;98253.69;5051043;28;20483;-91
2023/08/27 02:36:25;;;;;;;18.98;17.17;;;;;;;20.49;76.21;98264.97;5068031;28;20559;-92
2023/08/27 02:38:52;;;;;;;19.80;17.92;;;;;;;20.46;75.93;98265.22;5051261;28;20045;-92
2023/08/27 02:41:17;;;;;;;18.73;16.98;;;;;;;20.44;76.12;98265.34;5084902;28;20040;-93
2023/08/27 02:43:43;;;;;;;18.48;16.77;;;;;;;20.45;76.98;98264.38;5050254;28;20819;-92
2023/08/27 02:46:11;;;;;;;19.60;17.80;;;;;;;20.44;76.55;98249.13;5049625;28;20037;-91
2023/08/27 02:48:36;;;;;;;18.10;16.50;;;;;;;20.45;75.66;98233.78;5050820;28;20049;-91
2023/08/27 02:51:02;;;;;;;18.40;16.83;;;;;;;20.57;75.14;98242.81;5051343;28;20056;-92
2023/08/27 02:53:28;;;;;;;17.75;16.35;;;;;;;20.66;74.70;98239.41;5067790;28;20040;-90
2023/08/27 02:55:54;;;;;;;18.95;17.02;;;;;;;20.62;75.12;98235.22;5051521;28;20125;-92
2023/08/27 02:58:19;;;;;;;18.35;16.55;;;;;;;20.57;75.03;98232.00;5067432;28;20127;-91
2023/08/27 03:00:45;;;;;;;18.77;17.23;;;;;;;20.51;75.46;98234.19;5066316;28;20037;-92
2023/08/27 03:03:13;;;;;;;19.27;17.38;;;;;;;20.42;77.46;98234.03;5067779;28;20703;-91
2023/08/27 03:05:39;;;;;;;18.52;16.92;;;;;;;20.38;77.02;98227.13;5050938;28;20043;-91
2023/08/27 03:08:05;;;;;;;19.75;18.08;;;;;;;20.31;78.11;98230.28;5084479;28;20055;-91
2023/08/27 03:10:31;;;;;;;18.50;16.83;;;;;;;20.24;78.74;98234.44;5051095;28;20037;-92
2023/08/27 03:12:56;;;;;;;18.63;17.02;;;;;;;20.15;78.52;98236.97;5051350;28;20049;-92
2023/08/27 03:15:22;;;;;;;18.58;16.63;;;;;;;20.21;78.80;98240.09;5049883;28;20036;-91
2023/08/27 03:17:48;;;;;;;18.85;17.15;;;;;;;20.20;78.48;98224.84;5067647;28;20499;-91
2023/08/27 03:20:15;;;;;;;18.60;16.77;;;;;;;20.19;79.49;98224.94;5051403;28;20112;-92
2023/08/27 03:22:41;;;;;;;19.33;17.48;;;;;;;20.14;79.85;98229.84;5085085;28;20037;-92
2023/08/27 03:25:07;;;;;;;17.92;16.33;;;;;;;20.14;79.90;98225.28;5067986;28;20033;-91
2023/08/27 03:27:34;;;;;;;18.40;16.70;;;;;;;20.17;79.35;98217.00;5051444;28;20033;-91
2023/08/27 03:30:00;;;;;;;18.42;16.70;;;;;;;20.16;79.93;98207.16;5067702;28;20041;-92
2023/08/27 03:32:26;;;;;;;18.55;16.95;;;;;;;20.19;79.58;98214.16;5052246;28;20047;-92
2023/08/27 03:34:51;;;;;;;19.70;17.75;;;;;;;20.23;79.99;98211.13;5069601;28;20521;-91
2023/08/27 03:37:19;;;;;;;19.30;17.52;;;;;;;20.26;80.85;98207.34;5088408;28;21305;-92
2023/08/27 03:39:44;;;;;;;19.98;18.15;;;;;;;20.08;80.75;98188.84;5088636;28;20037;-92
2023/08/27 03:42:10;;;;;;;19.45;17.73;;;;;;;20.14;80.61;98201.00;5071462;28;20490;-91
2023/08/27 03:44:36;;;;;;;18.52;16.92;;;;;;;20.14;79.52;98190.19;5071300;28;20033;-91
2023/08/27 03:47:03;;;;;;;20.75;18.98;;;;;;;20.27;78.48;98204.50;5052971;28;20917;-93
2023/08/27 03:49:28;;;;;;;19.70;17.83;;;;;;;20.27;78.97;98195.53;5053751;28;20402;-92
2023/08/27 03:51:54;;;;;;;20.58;18.58;;;;;;;20.26;79.15;98204.63;5054655;28;20039;-92
2023/08/27 03:54:21;;;;;;;19.60;17.80;;;;;;;20.21;78.90;98202.28;5071541;28;20082;-92
2023/08/27 03:56:47;;;;;;;19.48;17.63;;;;;;;20.13;79.58;98199.28;5087993;28;20398;-91
2023/08/27 03:59:13;;;;;;;18.60;17.05;;;;;;;20.21;78.80;98198.69;5054204;28;20079;-92
2023/08/27 04:01:39;;;;;;;18.88;17.25;;;;;;;20.10;79.73;98192.28;5052851;28;20056;-91
2023/08/27 04:04:05;;;;;;;18.80;17.33;;;;;;;20.17;79.82;98203.50;5071211;28;20525;-92
2023/08/27 04:06:31;;;;;;;19.13;17.33;;;;;;;20.12;79.88;98205.66;5087927;28;20128;-92
2023/08/27 04:08:56;;;;;;;19.08;17.25;;;;;;;20.04;80.03;98190.06;5054675;28;20132;-92
2023/08/27 04:11:24;;;;;;;19.70;17.90;;;;;;;19.92;81.01;98192.81;5087869;28;20037;-91
2023/08/27 04:13:50;;;;;;;19.58;17.73;;;;;;;19.98;80.14;98197.75;5069535;28;20503;-91
2023/08/27 04:16:16;;;;;;;20.38;18.42;;;;;;;19.96;80.01;98188.91;5052885;28;20518;-91
2023/08/27 04:18:42;;;;;;;20.23;18.42;;;;;;;19.89;79.86;98170.47;5070720;28;20499;-91
2023/08/27 04:21:08;;;;;;;20.88;18.83;;;;;;;19.96;81.06;98205.09;5053674;28;20033;-91
2023/08/27 04:23:33;;;;;;;20.52;18.58;;;;;;;19.86;81.75;98221.97;5054017;28;20067;-90
2023/08/27 04:25:59;;;;;;;20.25;18.58;;;;;;;19.82;81.22;98217.78;5053993;28;20045;-92
2023/08/27 04:28:26;;;;;;;20.63;18.80;;;;;;;19.86;80.48;98213.88;5070560;28;20461;-92
2023/08/27 04:30:52;;;;;;;21.33;19.38;;;;;;;19.81;80.46;98207.09;5052600;28;20044;-91
2023/08/27 04:33:18;;;;;;;19.98;18.27;;;;;;;19.78;81.02;98200.09;5070784;28;20048;-92
2023/08/27 04:35:48;;;;;;;20.48;18.70;;;;;;;19.90;80.35;98209.94;5053841;28;20041;-92
2023/08/27 04:38:14;;;;;;;21.45;19.45;;;;;;;19.88;80.45;98217.28;5053879;28;20128;-92
2023/08/27 04:40:40;;;;;;;21.08;19.38;;;;;;;19.94;80.69;98218.69;5070214;28;20443;-91
2023/08/27 04:43:05;;;;;;;21.42;19.50;;;;;;;19.93;81.18;98229.59;5053392;28;20132;-91
2023/08/27 04:45:33;;;;;;;21.73;19.65;;;;;;;19.83;81.81;98208.69;5052460;28;20037;-92
2023/08/27 04:47:59;;;;;;;22.17;20.02;;;;;;;19.97;81.38;98231.09;5051363;28;20041;-91
2023/08/27 04:50:25;;;;;;;21.77;19.67;;;;;;;19.81;81.69;98204.41;5053176;28;20048;-93
2023/08/27 04:52:51;;;;;;;36.97;22.02;;;;;;;19.92;82.36;98228.75;5084434;28;20041;-92
2023/08/27 04:55:17;;;;;;;24.33;21.48;;;;;;;19.85;83.59;98214.84;5053563;28;20045;-91
2023/08/27 04:57:42;;;;;;;22.85;20.48;;;;;;;19.88;83.86;98203.81;5053640;28;20418;-91
2023/08/27 05:00:13;;;;;;;22.90;20.80;;;;;;;20.01;82.10;98216.41;5068937;28;20044;-91
2023/08/27 05:02:40;;;;;;;22.60;20.70;;;;;;;20.02;84.18;98216.28;5068057;28;20071;-93
2023/08/27 05:05:06;;;;;;;21.35;19.52;;;;;;;20.08;83.62;98218.53;5053340;28;20049;-92
2023/08/27 05:07:32;;;;;;;23.55;21.35;;;;;;;20.13;84.25;98223.59;5053397;28;20579;-91
2023/08/27 05:09:58;;;;;;;23.88;21.38;;;;;;;20.14;84.15;98214.50;5052073;28;20040;-92
2023/08/27 05:12:24;;;;;;;23.98;21.98;;;;;;;20.05;85.17;98210.66;5069963;28;20490;-91
2023/08/27 05:14:50;;;;;;;23.08;20.83;;;;;;;20.06;85.92;98214.22;5069965;28;20516;-92
2023/08/27 05:17:15;;;;;;;24.63;22.42;;;;;;;20.13;86.75;98215.50;5051417;28;20033;-93
2023/08/27 05:19:42;;;;;;;24.88;22.60;;;;;;;20.08;86.46;98202.34;5086499;28;20819;-92
2023/08/27 05:22:08;;;;;;;29.23;26.83;;;;;;;20.15;87.01;98212.69;5048520;28;20041;-92
2023/08/27 05:24:35;;;;;;;26.20;23.90;;;;;;;20.20;86.70;98207.78;5052972;28;20037;-92
2023/08/27 05:27:00;;;;;;;27.55;25.08;;;;;;;20.30;87.43;98220.47;5052782;28;20037;-91
2023/08/27 05:29:26;;;;;;;25.98;23.67;;;;;;;20.29;88.29;98210.63;5052903;28;20041;-90
2023/08/27 05:31:53;;;;;;;26.65;24.25;;;;;;;20.35;88.98;98216.56;5067807;28;20055;-90
2023/08/27 05:34:19;;;;;;;26.85;24.48;;;;;;;20.31;88.38;98194.34;5069555;28;20037;-92
2023/08/27 05:36:46;;;;;;;26.83;24.52;;;;;;;20.43;87.90;98203.34;5053063;28;20114;-93
2023/08/27 05:39:14;;;;;;;27.50;24.83;;;;;;;20.64;86.54;98214.34;5086637;28;20052;-91
2023/08/27 05:41:39;;;;;;;27.50;25.00;;;;;;;20.70;87.42;98189.56;5086155;28;20083;-91
2023/08/27 05:44:06;;;;;;;27.45;24.55;;;;;;;20.84;86.36;98202.88;5086119;28;20045;-91
2023/08/27 05:46:32;;;;;;;28.00;25.50;;;;;;;20.97;86.89;98205.47;5067837;28;20071;-92
2023/08/27 05:48:57;;;;;;;27.92;25.45;;;;;;;21.13;86.39;98202.41;5052268;28;20073;-91
2023/08/27 05:51:23;;;;;;;25.48;23.08;;;;;;;21.27;84.31;98204.88;5052493;28;20086;-91
2023/08/27 05:53:50;;;;;;;28.42;25.65;;;;;;;21.46;82.07;98200.72;5051329;28;20043;-93
2023/08/27 05:56:16;;;;;;;26.33;23.90;;;;;;;21.65;80.12;98190.13;5047385;28;20045;-93
2023/08/27 05:58:42;;;;;;;28.27;25.67;;;;;;;21.74;78.68;98183.97;5052459;28;20845;-92
2023/08/27 06:01:08;;;;;;;29.25;26.45;;;;;;;21.81;78.25;98175.34;5084179;28;20453;-92
2023/08/27 06:03:34;;;;;;;31.27;28.27;;;;;;;22.07;78.83;98187.56;5051790;28;20063;-92
2023/08/27 06:05:59;;;;;;;29.90;26.95;;;;;;;22.24;77.53;98191.59;5052236;28;20045;-91
2023/08/27 06:08:25;;;;;;;28.33;25.83;;;;;;;22.46;77.28;98203.31;5045422;28;20037;-92
2023/08/27 06:10:52;;;;;;;28.50;25.77;;;;;;;22.64;75.37;98198.19;5050947;28;20087;-91
2023/08/27 06:13:18;;;;;;;28.00;25.17;;;;;;;22.84;73.99;98191.91;5079443;28;20423;-91
2023/08/27 06:15:44;;;;;;;27.73;25.15;;;;;;;22.92;72.11;98172.25;5067355;28;20091;-90
2023/08/27 06:18:10;;;;;;;28.70;26.10;;;;;;;23.19;70.76;98179.00;5048652;28;20454;-91
2023/08/27 06:20:36;;;;;;;28.08;25.67;;;;;;;23.33;69.50;98187.66;5085389;28;20457;-91
2023/08/27 06:23:04;;;;;;;27.40;24.77;;;;;;;23.45;69.42;98182.97;5084360;28;20041;-90
2023/08/27 06:25:32;;;;;;;521.75;269.85;;;;;;;23.17;69.78;98188.13;5086281;28;20048;-91
2023/08/27 06:28:01;;;;;;;1999.90;999.90;;;;;;;23.29;69.92;98179.88;5068203;28;20387;-92
2023/08/27 06:30:27;;;;;;;1999.90;999.90;;;;;;;23.41;70.45;98176.09;5062173;28;20394;-92
2023/08/27 06:32:54;;;;;;;1999.90;999.90;;;;;;;23.66;68.75;98180.19;5049899;28;20037;-91
2023/08/27 06:35:20;;;;;;;1999.90;999.90;;;;;;;23.70;68.79;98164.47;5052102;28;20052;-92
2023/08/27 06:37:45;;;;;;;1999.90;999.90;;;;;;;23.91;68.06;98169.84;5050739;28;20040;-92
2023/08/27 06:40:12;;;;;;;1999.90;999.90;;;;;;;24.07;67.22;98161.13;5050472;28;20044;-90
2023/08/27 06:42:38;;;;;;;1999.90;999.90;;;;;;;24.30;65.76;98178.88;5084528;28;20048;-92
2023/08/27 06:45:07;;;;;;;1508.72;758.15;;;;;;;24.46;64.60;98161.13;5047877;28;20037;-92
2023/08/27 06:47:32;;;;;;;;;;;;;;;24.71;63.44;98173.31;5083682;28;20041;-92
2023/08/27 06:49:58;;;;;;;1999.90;999.90;;;;;;;24.89;62.42;98159.81;5082806;28;19925;-92
2023/08/27 06:52:24;;;;;;;1999.90;999.90;;;;;;;25.06;62.21;98166.34;5049897;28;20033;-92
2023/08/27 06:54:50;;;;;;;1999.90;999.90;;;;;;;24.71;62.78;98140.69;5083398;28;20494;-91
2023/08/27 06:57:16;;;;;;;1508.40;757.80;;;;;;;24.54;63.26;98158.59;5084088;28;20048;-91
2023/08/27 06:59:41;;;;;;;35.25;32.60;;;;;;;24.68;63.73;98166.31;5066804;28;20044;-90
2023/08/27 07:02:09;;;;;;;34.38;31.73;;;;;;;24.91;62.35;98163.25;5048218;28;20033;-92
2023/08/27 07:04:35;;;;;;;37.03;34.53;;;;;;;25.13;61.33;98146.53;5083729;28;20033;-92
2023/08/27 07:07:01;;;;;;;36.65;33.85;;;;;;;25.55;60.48;98157.00;5054657;28;20067;-92
2023/08/27 07:09:27;;;;;;;34.05;31.40;;;;;;;25.72;59.18;98141.72;5070223;28;20494;-92
2023/08/27 07:11:53;;;;;;;31.52;28.55;;;;;;;26.11;57.24;98156.97;5054417;28;19932;-90
2023/08/27 07:14:19;;;;;;;28.73;26.40;;;;;;;26.22;57.23;98138.53;5053077;28;20037;-92
2023/08/27 07:16:45;;;;;;;29.30;26.70;;;;;;;26.44;56.29;98153.53;5053454;28;20037;-93
2023/08/27 07:19:12;;;;;;;28.50;25.50;;;;;;;26.61;55.73;98149.13;5088440;28;20051;-93
2023/08/27 07:21:38;;;;;;;29.00;26.17;;;;;;;26.64;54.18;98145.22;5088264;28;20468;-93
2023/08/27 07:24:04;;;;;;;25.15;22.75;;;;;;;26.66;53.52;98136.88;5071696;28;20135;-92
2023/08/27 07:26:32;;;;;;;27.02;24.35;;;;;;;26.75;51.56;98144.94;5089355;28;20047;-92
2023/08/27 07:28:58;;;;;;;25.85;23.08;;;;;;;26.52;51.84;98138.25;5055052;28;20052;-92
2023/08/27 07:31:24;;;;;;;26.90;24.15;;;;;;;26.79;50.24;98137.31;5054567;28;20044;-92
2023/08/27 07:33:50;;;;;;;23.98;21.58;;;;;;;26.93;48.56;98133.97;5072506;28;20037;-92
2023/08/27 07:36:17;;;;;;;24.58;22.40;;;;;;;27.13;46.31;98125.56;5054772;28;20037;-93
2023/08/27 07:38:43;;;;;;;24.63;22.08;;;;;;;26.92;44.78;98134.16;5055705;28;20064;-93
2023/08/27 07:41:11;;;;;;;23.40;21.23;;;;;;;26.95;47.48;98123.75;5076572;28;20041;-94
2023/08/27 07:43:37;;;;;;;24.00;21.77;;;;;;;27.29;44.92;98142.06;5089920;28;20040;-94
2023/08/27 07:46:03;;;;;;;22.77;20.65;;;;;;;27.46;47.37;98132.09;5071523;28;20799;-92
2023/08/27 07:48:31;;;;;;;24.30;21.92;;;;;;;27.56;46.09;98112.81;5056055;28;20048;-93
2023/08/27 07:50:57;;;;;;;24.83;22.17;;;;;;;27.76;46.09;98117.00;5056229;28;20102;-93
2023/08/27 07:53:24;;;;;;;23.65;21.20;;;;;;;27.88;45.87;98128.50;5055985;28;20095;-94
2023/08/27 07:55:50;;;;;;;23.50;21.17;;;;;;;28.10;45.91;98131.59;5072957;28;20390;-95
2023/08/27 07:58:16;;;;;;;22.50;20.60;;;;;;;28.13;46.42;98125.78;5073387;28;20586;-93
2023/08/27 08:00:42;;;;;;;22.70;20.58;;;;;;;28.31;45.17;98121.03;5073396;28;20056;-92
2023/08/27 08:03:08;;;;;;;23.23;21.08;;;;;;;28.41;43.76;98108.06;5059595;28;20037;-93
2023/08/27 08:05:34;;;;;;;22.58;20.27;;;;;;;28.54;43.84;98121.25;5075306;28;20045;-94
2023/08/27 08:08:00;;;;;;;21.98;20.02;;;;;;;28.55;44.43;98105.69;5075291;28;20445;-92
2023/08/27 08:10:27;;;;;;;22.85;20.73;;;;;;;28.72;43.38;98095.59;5075356;28;20459;-92
2023/08/27 08:12:53;;;;;;;20.60;18.55;;;;;;;28.81;42.24;98092.66;5074851;28;20095;-93
2023/08/27 08:15:19;;;;;;;21.65;19.65;;;;;;;29.07;40.11;98106.09;5090354;28;20076;-93
2023/08/27 08:17:45;;;;;;;21.83;19.65;;;;;;;29.13;41.03;98101.00;5074036;28;20041;-94
2023/08/27 08:20:12;;;;;;;22.75;20.40;;;;;;;29.25;41.32;98102.31;5058254;28;20107;-94
2023/08/27 08:22:38;;;;;;;21.08;19.17;;;;;;;29.11;40.11;98100.31;5056007;28;20045;-94
2023/08/27 08:25:05;;;;;;;21.30;19.30;;;;;;;29.28;41.80;98110.19;5089613;28;20049;-92
2023/08/27 08:27:32;;;;;;;20.98;19.00;;;;;;;29.21;40.17;98088.13;5088567;28;20494;-94
2023/08/27 08:29:58;;;;;;;21.17;19.15;;;;;;;29.39;39.66;98095.25;5072981;28;20517;-92
2023/08/27 08:32:24;;;;;;;21.40;19.40;;;;;;;29.42;38.81;98070.25;5055092;28;20517;-92
2023/08/27 08:34:50;;;;;;;19.48;17.63;;;;;;;29.50;42.21;98070.19;5055364;28;20048;-93
2023/08/27 08:37:15;;;;;;;20.30;18.02;;;;;;;29.73;40.79;98077.63;5056288;28;20127;-94
2023/08/27 08:39:41;;;;;;;20.65;18.52;;;;;;;29.88;42.14;98075.81;5055995;28;20041;-94
2023/08/27 08:42:15;;;;;;;20.20;18.23;;;;;;;29.92;41.12;98065.34;5072998;28;20051;-93
2023/08/27 08:44:50;;;;;;;20.08;18.10;;;;;;;30.05;40.33;98077.41;5035835;28;20068;-93
2023/08/27 08:47:18;;;;;;;20.30;18.45;;;;;;;30.03;40.62;98075.88;5048524;28;20041;-93
2023/08/27 08:49:45;;;;;;;20.13;18.35;;;;;;;29.96;42.04;98051.09;5088722;28;20053;-93
2023/08/27 08:52:17;;;;;;;21.50;19.33;;;;;;;30.16;41.61;98056.94;5073002;28;20135;-93
2023/08/27 08:54:49;;;;;;;18.90;17.00;;;;;;;30.38;39.38;98057.97;5055626;28;20140;-92
2023/08/27 08:57:15;;;;;;;19.15;17.55;;;;;;;30.25;39.41;98044.88;5054936;28;20115;-92
2023/08/27 08:59:43;;;;;;;20.00;18.27;;;;;;;30.45;39.55;98058.13;5084789;28;20041;-92
2023/08/27 09:02:12;;;;;;;20.47;18.57;;;;;;;30.78;39.38;98072.34;5070476;28;20036;-94
2023/08/27 09:04:40;;;;;;;19.52;17.98;;;;;;;30.91;39.09;98047.88;5071325;28;20498;-92
2023/08/27 09:07:06;;;;;;;;;;;;;;;31.06;37.27;98063.50;5054456;28;20048;-92
2023/08/27 09:09:32;;;;;;;20.70;18.90;;;;;;;31.22;37.70;98060.56;5052823;28;19929;-94
2023/08/27 09:11:59;;;;;;;20.98;18.77;;;;;;;31.39;37.30;98058.44;5086140;28;20083;-91
2023/08/27 09:14:25;;;;;;;19.23;17.48;;;;;;;31.51;36.30;98056.06;5050914;28;20131;-92
2023/08/27 09:16:51;;;;;;;21.88;20.10;;;;;;;30.80;36.02;98034.59;5066788;28;20515;-91
2023/08/27 09:19:19;;;;;;;20.63;18.92;;;;;;;30.55;36.12;98055.09;5069290;28;20497;-91
2023/08/27 09:21:45;;;;;;;;;;;;;;;30.79;35.53;98059.47;5086274;28;20068;-93
2023/08/27 09:24:11;;;;;;;19.98;18.20;;;;;;;30.65;35.88;98052.94;5086205;28;19963;-92
2023/08/27 09:26:38;;;;;;;19.60;17.73;;;;;;;30.82;36.62;98059.97;5069080;28;20041;-93
2023/08/27 09:29:07;;;;;;;18.35;16.92;;;;;;;31.15;35.27;98050.53;5068645;28;20069;-92
2023/08/27 09:31:38;;;;;;;19.75;18.05;;;;;;;31.23;35.94;98056.78;5051882;28;20069;-93
2023/08/27 09:34:04;;;;;;;21.20;19.30;;;;;;;31.53;36.35;98056.75;5049767;28;20466;-93
2023/08/27 09:36:35;;;;;;;20.50;18.88;;;;;;;31.38;35.01;98054.00;5067946;28;20044;-93
2023/08/27 09:39:08;;;;;;;20.55;18.73;;;;;;;31.60;35.82;98071.44;5052024;28;20044;-93
2023/08/27 09:41:36;;;;;;;21.05;19.23;;;;;;;31.91;34.20;98073.06;5052099;28;20057;-92
2023/08/27 09:44:02;;;;;;;20.65;19.13;;;;;;;31.83;33.85;98064.91;5068238;28;20870;-93
2023/08/27 09:46:28;;;;;;;21.52;19.83;;;;;;;32.32;32.61;98055.94;5066722;28;20048;-92
2023/08/27 09:48:58;;;;;;;21.83;20.13;;;;;;;32.10;32.86;98064.19;5067502;28;20441;-89
2023/08/27 09:51:24;;;;;;;21.77;20.15;;;;;;;31.64;32.78;98053.53;5051177;28;20078;-92
2023/08/27 09:53:51;;;;;;;22.08;20.38;;;;;;;32.00;33.54;98066.41;5051970;28;20135;-91
2023/08/27 09:56:17;;;;;;;21.73;20.17;;;;;;;31.83;32.40;98049.25;5051494;28;20063;-92
2023/08/27 09:58:43;;;;;;;22.05;20.40;;;;;;;32.48;32.02;98052.88;5051935;28;20065;-92
2023/08/27 10:01:08;;;;;;;21.95;20.40;;;;;;;32.45;32.00;98058.78;5065697;28;20505;-91
2023/08/27 10:03:34;;;;;;;23.20;21.45;;;;;;;32.71;31.63;98060.94;5051794;28;20041;-91
2023/08/27 10:06:01;;;;;;;24.17;22.00;;;;;;;32.87;30.96;98068.03;5051470;28;20098;-92
2023/08/27 10:08:27;;;;;;;23.80;22.17;;;;;;;32.79;31.07;98059.06;5051839;28;20087;-90
2023/08/27 10:11:05;;;;;;;24.17;22.35;;;;;;;32.53;30.58;98053.19;5051104;28;20033;-92
2023/08/27 10:13:32;;;;;;;22.58;20.92;;;;;;;33.09;30.95;98043.19;5051328;28;20044;-91
2023/08/27 10:15:58;;;;;;;23.50;21.88;;;;;;;33.20;30.28;98045.34;5064981;28;20072;-90
2023/08/27 10:18:24;;;;;;;23.23;21.55;;;;;;;33.32;30.03;98027.19;5086064;28;20450;-92
2023/08/27 10:20:53;;;;;;;24.83;23.20;;;;;;;33.56;30.00;98024.97;5049346;28;20490;-92
2023/08/27 10:23:20;;;;;;;25.73;23.92;;;;;;;33.78;30.53;98020.16;5084660;28;20037;-92
2023/08/27 10:25:47;;;;;;;28.38;26.40;;;;;;;33.61;28.30;98011.44;5051180;28;20037;-91
2023/08/27 10:28:16;;;;;;;26.27;24.45;;;;;;;33.70;28.42;98010.19;5050867;28;20043;-92
2023/08/27 10:30:44;;;;;;;27.23;25.48;;;;;;;33.52;28.87;98012.66;5067418;28;20033;-94
2023/08/27 10:33:10;;;;;;;25.98;24.17;;;;;;;33.74;28.79;98019.72;5067221;28;20503;-93
2023/08/27 10:35:39;;;;;;;28.25;26.55;;;;;;;33.42;29.02;98007.53;5064013;28;20053;-93
2023/08/27 10:38:07;;;;;;;26.25;24.52;;;;;;;33.27;29.51;98012.34;5051144;28;20044;-92
2023/08/27 10:40:34;;;;;;;26.40;24.73;;;;;;;33.02;30.03;98018.34;5067216;28;20047;-93
2023/08/27 10:43:08;;;;;;;25.73;24.02;;;;;;;32.86;29.71;98011.25;5048788;28;20094;-92
2023/08/27 10:45:38;;;;;;;26.08;24.00;;;;;;;33.03;30.00;97998.00;5044192;28;20071;-92
2023/08/27 10:48:08;;;;;;;25.90;24.25;;;;;;;33.06;30.21;98014.16;5050908;28;20072;-92
2023/08/27 10:50:44;;;;;;;26.25;24.42;;;;;;;33.06;30.27;98014.16;5065526;28;20056;-93
2023/08/27 10:53:10;;;;;;;24.98;23.35;;;;;;;32.75;30.50;97995.31;5049287;28;20098;-90
2023/08/27 10:55:36;;;;;;;24.17;22.52;;;;;;;33.00;30.77;98005.81;5083274;28;20036;-93
2023/08/27 10:58:15;;;;;;;24.17;22.48;;;;;;;33.22;30.53;98006.59;5069548;28;20060;-92
2023/08/27 11:01:00;;;;;;;26.02;23.95;;;;;;;33.14;30.20;98002.97;5064205;28;20073;-93
2023/08/27 11:03:26;;;;;;;24.90;23.25;;;;;;;33.21;30.35;97991.97;5050637;28;20059;-92
2023/08/27 11:06:10;;;;;;;25.45;23.63;;;;;;;33.29;29.86;97982.66;5050777;28;20037;-92
2023/08/27 11:08:35;;;;;;;24.52;22.80;;;;;;;33.07;29.91;97981.94;5049713;28;20167;-93
2023/08/27 11:11:10;;;;;;;24.48;22.83;;;;;;;33.14;30.12;97974.56;5050234;28;20128;-91
2023/08/27 11:13:37;;;;;;;23.17;21.55;;;;;;;33.23;30.26;97954.03;5049340;28;20116;-92
2023/08/27 11:16:11;;;;;;;22.90;21.15;;;;;;;33.21;29.93;97944.28;5060728;28;20376;-93